Impacts TAF Board INFO
FOR SITUATIONAL AWARENESS. NOT TO BE USED FOR FLIGHT PLANNING PURPOSES.
IDs:

KMCO - Orlando Intl, FL, US

Issued at 0257 UTC 25 Jun 2017
Updated at 0334 UTC 25 Jun 2017
Potential Impact None Slight Moderate High
Time0325Z 25/04Z 25/05Z 25/06Z 25/07Z 25/08Z 25/09Z 25/10Z 25/11Z 25/12Z 25/13Z 25/14Z 25/15Z 25/16Z>>
Type OBS PRVL PRVL PRVL PRVL PRVL PRVL PRVL PRVL PRVL PRVL PRVL PRVL PRVL
VIS 10 >6 >6 >6 >6 >6 >6 >6 >6 >6 >6 >6 >6 >6
CIG 27 60 150 150 150 150 150 150 150 150 150 -- -- --
Cover OVC BKN BKN BKN BKN BKN BKN BKN BKN BKN BKN SCT SCT SCT
FltCat MVFR VFR VFR VFR VFR VFR VFR VFR VFR VFR VFR VFR VFR VFR
WX -- VCTS -- -- -- -- -- -- -- -- -- -- -- --
WDir 300 VRB VRB VRB VRB VRB VRB VRB VRB VRB VRB 170 170 170
WSpd 7 4 3 3 3 3 3 3 3 3 3 7 7 7
WGst -- -- -- -- -- -- -- -- -- -- -- -- -- --

Raw TAF
KMCO 250257Z 2503/2524 VRB04KT P6SM VCTS FEW030CB BKN060
  FM250430 VRB03KT P6SM SCT060 BKN150
  FM251400 17007KT P6SM SCT030 SCT080 SCT250
  FM251900 14008KT P6SM VCTS SCT040CB SCT250


Raw METAR
KMCO 250325Z 30007KT 10SM BKN027 OVC060 26/24 A3011 RMK AO2 TSE22 TS DSIPTD T02560244
KMCO 250314Z 28005KT 10SM TS BKN029CB OVC060 26/24 A3011 RMK AO2 LTG DSNT W OCNL LTGIC W TS W STNRY T02610239
KMCO 250253Z 29003KT 10SM TS FEW030CB BKN060 OVC120 27/24 A3010 RMK AO2 LTG DSNT W AND NW SLP192 FRQ LTGIC SW-W TS SW-W STNRY T02720244 53024
KMCO 250153Z 15007KT 10SM TS FEW040CB SCT070 BKN120 27/24 A3007 RMK AO2 LTG DSNT N SLP182 OCNL LTGICCG W-N TS W-N STNRY T02720239
KMCO 250053Z COR 15012KT 10SM TS FEW040CB SCT090 BKN250 28/24 A3004 RMK AO2 LTG DSNT W-N TSB18 SLP171 CONS LTGICCG W-N TS W-N STNRY T02780239

METAR Board
Radar Display
Forecast Discussion

FOR SITUATIONAL AWARENESS. NOT TO BE USED FOR FLIGHT PLANNING PURPOSES.

Page loaded:  03:34 UTC  |   08:34 PM Pacific  |   09:34 PM Mountain  |   10:34 PM Central  |   11:34 PM Eastern

 

ADVISORIES

FORECASTS

FORECASTS

OBSERVATIONS

USER TOOLS

ABOUT US